Time;durP1;ratioP1;P1;durP2;ratioP2;P2;SDS_P1;SDS_P2;PMS_P1;PMS_P2;Temp;Humidity;BMP_temperature;BMP_pressure;BME280_temperature;BME280_humidity;BME280_pressure;Samples;Min_cycle;Max_cycle;Signal;HPM_P1;HPM_P2
2022/02/28 00:01:49;;;;;;;7.32;5.00;;;15.20;61.50;;;;;;4047302;29;20478;-67
2022/02/28 00:04:13;;;;;;;7.45;4.57;;;15.20;60.60;;;;;;4033007;29;20061;-67
2022/02/28 00:06:35;;;;;;;5.95;4.68;;;15.20;60.60;;;;;;4047682;29;20074;-67
2022/02/28 00:08:57;;;;;;;9.55;5.57;;;15.20;61.10;;;;;;4047568;29;20056;-67
2022/02/28 00:11:19;;;;;;;8.52;5.57;;;15.20;60.90;;;;;;4047486;29;20052;-68
2022/02/28 00:13:42;;;;;;;7.57;4.70;;;15.20;60.90;;;;;;4062223;29;20108;-68
2022/02/28 00:16:04;;;;;;;8.95;5.03;;;15.20;61.10;;;;;;4062674;29;20056;-68
2022/02/28 00:18:27;;;;;;;7.28;4.57;;;15.10;60.90;;;;;;4061384;29;20147;-68
2022/02/28 00:20:50;;;;;;;6.63;4.93;;;15.10;61.00;;;;;;4062823;29;20430;-67
2022/02/28 00:23:12;;;;;;;10.07;5.38;;;15.10;61.20;;;;;;4051247;29;20410;-68
2022/02/28 00:25:34;;;;;;;7.65;5.10;;;15.10;61.30;;;;;;4047195;29;20083;-67
2022/02/28 00:27:56;;;;;;;7.63;5.07;;;15.10;61.40;;;;;;4046846;29;20048;-67
2022/02/28 00:30:19;;;;;;;6.85;5.70;;;15.10;61.40;;;;;;4047466;29;20052;-68
2022/02/28 00:32:41;;;;;;;7.60;5.00;;;15.00;61.20;;;;;;4061581;29;20052;-60
2022/02/28 00:35:04;;;;;;;7.78;4.95;;;15.10;61.30;;;;;;4048418;29;20120;-61
2022/02/28 00:37:28;;;;;;;7.93;5.15;;;15.00;61.30;;;;;;4047757;29;20171;-61
2022/02/28 00:39:50;;;;;;;7.15;5.43;;;15.00;61.30;;;;;;4036664;29;20060;-59
2022/02/28 00:42:12;;;;;;;7.15;5.20;;;15.00;61.50;;;;;;4059953;29;20051;-60
2022/02/28 00:44:35;;;;;;;5.72;4.93;;;15.00;61.40;;;;;;4035507;29;20147;-61
2022/02/28 00:46:57;;;;;;;6.10;4.85;;;15.00;61.50;;;;;;4035603;29;20053;-61
2022/02/28 00:49:20;;;;;;;8.00;5.40;;;15.00;61.50;;;;;;4046669;29;20080;-61
2022/02/28 00:51:43;;;;;;;7.15;5.13;;;15.00;61.30;;;;;;4053468;29;20075;-61
2022/02/28 00:54:06;;;;;;;7.68;5.03;;;15.00;61.40;;;;;;4065358;29;20189;-61
2022/02/28 00:56:29;;;;;;;8.40;5.18;;;14.90;61.40;;;;;;4065444;29;20136;-61
2022/02/28 00:58:51;;;;;;;6.35;4.93;;;14.90;61.40;;;;;;4047599;29;20143;-60
2022/02/28 01:01:14;;;;;;;7.28;4.88;;;14.90;61.10;;;;;;4048260;29;20147;-60
2022/02/28 01:03:39;;;;;;;6.82;5.15;;;14.90;61.40;;;;;;4034767;29;20053;-60
2022/02/28 01:06:02;;;;;;;6.68;5.18;;;14.90;61.40;;;;;;4049372;29;20491;-60
2022/02/28 01:08:24;;;;;;;8.02;5.10;;;14.90;61.50;;;;;;4049596;29;20076;-61
2022/02/28 01:10:49;;;;;;;6.97;5.18;;;14.90;61.60;;;;;;4059796;29;20529;-60
2022/02/28 01:13:11;;;;;;;9.02;5.10;;;14.80;61.80;;;;;;4050637;29;20052;-60
2022/02/28 01:15:39;;;;;;;8.35;5.05;;;14.80;62.00;;;;;;4065088;29;20055;-60
2022/02/28 01:18:01;;;;;;;8.05;5.20;;;14.80;62.00;;;;;;4055955;29;20144;-61
2022/02/28 01:20:23;;;;;;;10.57;5.18;;;14.80;61.90;;;;;;4049510;29;20104;-61
2022/02/28 01:22:46;;;;;;;10.27;5.93;;;14.80;61.90;;;;;;4037341;29;20136;-60
2022/02/28 01:25:09;;;;;;;7.80;5.38;;;14.80;62.10;;;;;;4048993;29;20555;-60
2022/02/28 01:27:33;;;;;;;7.50;4.88;;;14.80;62.10;;;;;;4049503;29;20062;-60
2022/02/28 01:29:55;;;;;;;10.07;5.47;;;14.80;62.50;;;;;;4050202;29;20057;-60
2022/02/28 01:32:18;;;;;;;8.10;5.28;;;14.70;62.90;;;;;;4049450;29;20056;-60
2022/02/28 01:34:40;;;;;;;7.82;5.25;;;14.70;62.50;;;;;;4050382;29;20234;-59
2022/02/28 01:37:03;;;;;;;7.85;5.65;;;14.70;62.50;;;;;;4064493;29;20059;-60
2022/02/28 01:39:25;;;;;;;6.97;5.40;;;14.70;62.50;;;;;;4064215;29;20099;-60
2022/02/28 01:41:49;;;;;;;7.78;5.78;;;14.70;62.50;;;;;;4056595;29;20048;-60
2022/02/28 01:44:13;;;;;;;9.20;5.40;;;14.70;63.40;;;;;;4048642;29;20072;-60
2022/02/28 01:46:36;;;;;;;6.28;5.63;;;14.70;62.40;;;;;;4048351;29;20052;-61
2022/02/28 01:48:58;;;;;;;10.20;5.72;;;14.70;62.50;;;;;;4048438;29;20052;-60
2022/02/28 01:51:20;;;;;;;6.60;5.60;;;14.70;63.40;;;;;;4049151;29;20060;-60
2022/02/28 01:53:42;;;;;;;10.43;5.82;;;14.70;62.60;;;;;;4050309;29;20579;-60
2022/02/28 01:56:05;;;;;;;7.75;5.70;;;14.60;62.60;;;;;;4064139;29;20058;-60
2022/02/28 01:58:35;;;;;;;6.75;5.50;;;14.60;62.60;;;;;;4049684;29;20048;-60
2022/02/28 02:00:59;;;;;;;10.45;5.68;;;14.60;62.60;;;;;;4046821;29;20049;-60
2022/02/28 02:03:22;;;;;;;7.90;5.38;;;14.60;62.80;;;;;;4048443;29;20506;-60
2022/02/28 02:05:46;;;;;;;7.22;5.65;;;14.60;62.70;;;;;;4049503;29;20100;-60
2022/02/28 02:08:09;;;;;;;6.88;5.28;;;14.60;62.60;;;;;;4049637;29;20072;-59
2022/02/28 02:10:35;;;;;;;7.80;5.50;;;14.50;61.90;;;;;;4047022;29;20075;-60
2022/02/28 02:13:00;;;;;;;7.07;5.68;;;14.60;61.70;;;;;;4049613;29;20053;-59
2022/02/28 02:15:22;;;;;;;7.78;5.65;;;14.60;61.70;;;;;;4049379;29;20059;-60
2022/02/28 02:17:46;;;;;;;8.13;6.05;;;14.50;61.20;;;;;;4049161;29;20044;-60
2022/02/28 02:20:11;;;;;;;7.43;5.30;;;14.50;61.40;;;;;;4063705;29;20143;-60
2022/02/28 02:22:38;;;;;;;10.77;6.47;;;14.50;61.50;;;;;;4033921;29;20056;-59
2022/02/28 02:25:02;;;;;;;8.18;5.80;;;14.50;61.10;;;;;;4047944;29;20052;-59
2022/02/28 02:27:24;;;;;;;9.73;5.47;;;14.50;61.10;;;;;;4052888;29;20043;-60
2022/02/28 02:29:46;;;;;;;7.90;6.38;;;14.40;61.70;;;;;;4040864;29;20045;-60
2022/02/28 02:32:10;;;;;;;7.00;6.00;;;14.40;61.20;;;;;;4033785;29;20665;-60
2022/02/28 02:34:33;;;;;;;7.93;5.68;;;14.40;61.70;;;;;;4033800;29;20053;-60
2022/02/28 02:36:57;;;;;;;8.45;6.57;;;14.40;61.40;;;;;;4048471;29;20135;-61
2022/02/28 02:39:19;;;;;;;9.77;6.40;;;14.40;61.20;;;;;;4046794;29;20092;-59
2022/02/28 02:41:42;;;;;;;7.85;6.13;;;14.30;61.30;;;;;;4048398;29;20049;-60
2022/02/28 02:44:05;;;;;;;9.32;6.00;;;14.30;60.90;;;;;;4046725;29;20060;-60
2022/02/28 02:46:27;;;;;;;13.82;6.05;;;14.30;60.90;;;;;;4046927;29;20061;-60
2022/02/28 02:49:09;;;;;;;9.93;6.63;;;14.30;61.20;;;;;;4060239;29;20517;-60
2022/02/28 02:51:32;;;;;;;9.93;6.10;;;14.30;60.60;;;;;;4033888;29;20548;-60
2022/02/28 02:53:55;;;;;;;9.35;6.00;;;14.30;61.10;;;;;;4033875;29;20089;-60
2022/02/28 02:56:19;;;;;;;9.43;6.22;;;14.30;61.30;;;;;;4047387;29;20511;-60
2022/02/28 02:58:42;;;;;;;9.30;6.03;;;14.20;61.30;;;;;;4048139;29;20139;-60
2022/02/28 03:01:04;;;;;;;7.00;5.43;;;14.20;60.90;;;;;;4065361;29;20497;-60
2022/02/28 03:03:29;;;;;;;10.15;6.53;;;14.20;61.40;;;;;;4048991;29;20514;-60
2022/02/28 03:05:53;;;;;;;8.63;6.10;;;14.20;61.90;;;;;;4048379;29;20060;-60
2022/02/28 03:08:17;;;;;;;9.93;5.85;;;14.20;62.20;;;;;;4048618;29;20063;-60
2022/02/28 03:10:40;;;;;;;12.05;6.60;;;14.20;62.20;;;;;;4033174;29;20048;-60
2022/02/28 03:13:03;;;;;;;7.97;6.28;;;14.20;62.10;;;;;;4046449;29;20048;-60
2022/02/28 03:15:26;;;;;;;8.20;6.72;;;14.20;63.20;;;;;;4063978;29;20047;-60
2022/02/28 03:17:49;;;;;;;8.40;6.00;;;14.30;63.20;;;;;;4060058;29;20058;-60
2022/02/28 03:20:12;;;;;;;13.00;6.82;;;14.30;63.40;;;;;;4059694;29;20060;-59
2022/02/28 03:22:35;;;;;;;8.85;6.13;;;14.50;63.40;;;;;;4063150;29;20052;-60
2022/02/28 03:24:58;;;;;;;11.32;6.63;;;14.50;63.90;;;;;;4048813;29;20141;-60
2022/02/28 03:27:23;;;;;;;9.02;6.70;;;14.60;62.70;;;;;;4048283;29;20491;-60
2022/02/28 03:29:45;;;;;;;11.55;6.22;;;14.60;62.10;;;;;;4037175;29;20080;-60
2022/02/28 03:32:08;;;;;;;9.45;6.72;;;14.60;61.40;;;;;;4032552;29;20550;-60
2022/02/28 03:34:30;;;;;;;10.20;7.18;;;14.60;61.50;;;;;;4032859;29;20077;-60
2022/02/28 03:36:52;;;;;;;7.85;6.05;;;14.60;61.20;;;;;;4036089;29;20139;-59
2022/02/28 03:39:15;;;;;;;8.20;6.55;;;14.50;61.40;;;;;;4047229;29;20057;-59
2022/02/28 03:41:37;;;;;;;10.55;6.60;;;14.50;61.40;;;;;;4061936;29;20047;-59
2022/02/28 03:44:01;;;;;;;8.95;6.22;;;14.50;61.60;;;;;;4047742;29;20139;-59
2022/02/28 03:46:26;;;;;;;9.70;6.70;;;14.40;61.90;;;;;;4047734;29;20104;-61
2022/02/28 03:49:07;;;;;;;8.95;6.78;;;14.40;61.90;;;;;;4046836;29;20187;-60
2022/02/28 03:51:39;;;;;;;9.43;6.78;;;14.30;62.20;;;;;;4032472;29;20977;-60
2022/02/28 03:54:06;;;;;;;10.77;6.55;;;14.30;62.50;;;;;;4032906;29;20049;-59
2022/02/28 03:56:28;;;;;;;10.18;7.10;;;14.20;62.50;;;;;;4033234;29;20060;-60
2022/02/28 03:58:50;;;;;;;9.05;6.75;;;14.20;62.80;;;;;;4035726;29;20581;-60
2022/02/28 04:01:14;;;;;;;7.53;6.32;;;14.20;63.60;;;;;;4048039;29;20052;-60
2022/02/28 04:03:41;;;;;;;8.93;6.68;;;14.30;63.70;;;;;;4048493;29;20108;-59
2022/02/28 04:06:03;;;;;;;8.73;7.28;;;14.40;63.40;;;;;;4048041;29;20072;-61
2022/02/28 04:08:26;;;;;;;8.02;6.35;;;14.50;63.10;;;;;;4047777;29;20430;-60
2022/02/28 04:10:48;;;;;;;10.75;6.88;;;14.60;62.90;;;;;;4049328;29;20136;-60
2022/02/28 04:13:11;;;;;;;10.10;7.72;;;14.70;62.60;;;;;;4049681;29;20449;-60
2022/02/28 04:15:34;;;;;;;8.07;6.57;;;14.70;62.40;;;;;;4051552;29;20044;-60
2022/02/28 04:17:58;;;;;;;9.23;7.20;;;14.70;62.20;;;;;;4051202;29;20108;-60
2022/02/28 04:20:43;;;;;;;8.10;6.30;;;14.80;61.80;;;;;;4051552;29;20624;-60
2022/02/28 04:23:06;;;;;;;7.32;6.40;;;14.80;61.90;;;;;;4051069;29;20072;-60
2022/02/28 04:25:29;;;;;;;9.15;6.88;;;14.80;61.80;;;;;;4051420;29;20088;-59
2022/02/28 04:27:52;;;;;;;7.97;6.10;;;14.80;62.00;;;;;;4051781;29;20084;-59
2022/02/28 04:30:15;;;;;;;10.73;7.30;;;14.80;62.10;;;;;;4035963;29;20049;-59
2022/02/28 04:32:41;;;;;;;9.68;6.93;;;14.80;61.90;;;;;;4035671;29;20144;-59
2022/02/28 04:35:06;;;;;;;9.40;6.75;;;14.90;61.80;;;;;;4038334;29;20759;-61
2022/02/28 04:37:31;;;;;;;8.77;6.95;;;14.90;61.60;;;;;;4063944;29;20502;-60
2022/02/28 04:39:53;;;;;;;10.63;7.75;;;15.00;61.80;;;;;;4049217;29;20104;-60
2022/02/28 04:42:16;;;;;;;10.20;7.30;;;15.00;61.60;;;;;;4048229;29;20182;-60
2022/02/28 04:44:38;;;;;;;13.00;7.57;;;15.00;61.40;;;;;;4036053;29;20057;-61
2022/02/28 04:47:01;;;;;;;9.80;6.85;;;15.00;61.20;;;;;;4034480;29;20135;-60
2022/02/28 04:49:39;;;;;;;9.35;7.80;;;15.00;61.90;;;;;;4061365;29;20066;-60
2022/02/28 04:52:03;;;;;;;10.88;6.72;;;15.00;61.10;;;;;;4051086;29;20084;-61
2022/02/28 04:54:26;;;;;;;9.13;7.68;;;15.10;61.20;;;;;;4050413;29;20067;-60
2022/02/28 04:56:49;;;;;;;12.05;7.78;;;15.10;61.40;;;;;;4050812;29;20051;-61
2022/02/28 04:59:11;;;;;;;8.50;6.57;;;15.20;61.20;;;;;;4039397;29;20516;-61
2022/02/28 05:01:36;;;;;;;10.93;7.97;;;15.20;61.10;;;;;;4035261;29;20057;-61
2022/02/28 05:04:13;;;;;;;11.95;6.82;;;15.30;60.90;;;;;;4047469;29;20423;-61
2022/02/28 05:06:36;;;;;;;11.13;7.20;;;15.30;60.70;;;;;;4035427;29;20049;-61
2022/02/28 05:08:59;;;;;;;11.13;7.20;;;15.30;60.70;;;;;;4050066;29;20059;-60
2022/02/28 05:11:22;;;;;;;10.35;6.85;;;15.30;60.70;;;;;;4050402;29;20052;-60
2022/02/28 05:13:44;;;;;;;8.60;6.47;;;15.30;60.80;;;;;;4049900;29;20080;-60
2022/02/28 05:16:06;;;;;;;11.32;7.18;;;15.30;60.70;;;;;;4050077;29;20056;-60
2022/02/28 05:18:29;;;;;;;9.57;7.35;;;15.40;60.70;;;;;;4041959;29;20064;-61
2022/02/28 05:20:51;;;;;;;9.77;7.40;;;15.50;60.40;;;;;;4034709;29;20063;-61
2022/02/28 05:23:13;;;;;;;8.75;7.07;;;15.50;61.00;;;;;;4043460;29;20061;-61
2022/02/28 05:25:39;;;;;;;10.68;7.45;;;15.50;60.10;;;;;;4049692;29;20053;-60
2022/02/28 05:28:21;;;;;;;9.88;7.57;;;15.50;59.90;;;;;;4063948;29;20048;-60
2022/02/28 05:30:47;;;;;;;11.68;7.05;;;15.50;59.90;;;;;;4049888;29;20083;-60
2022/02/28 05:33:09;;;;;;;10.63;7.15;;;15.50;59.90;;;;;;4050141;29;20548;-60
2022/02/28 05:35:35;;;;;;;13.98;8.13;;;15.40;60.00;;;;;;4050374;29;20061;-60
2022/02/28 05:38:22;;;;;;;9.70;7.60;;;15.40;60.00;;;;;;4057384;29;20052;-60
2022/02/28 05:40:53;;;;;;;10.25;6.93;;;15.30;61.00;;;;;;4034455;29;20239;-61
2022/02/28 05:43:23;;;;;;;9.82;7.40;;;15.30;60.70;;;;;;4044607;29;20438;-61
2022/02/28 05:45:48;;;;;;;11.93;7.32;;;15.30;60.70;;;;;;4047935;29;20056;-61
2022/02/28 05:48:23;;;;;;;11.10;7.38;;;15.30;60.70;;;;;;4049072;29;20049;-60
2022/02/28 05:50:46;;;;;;;11.15;8.30;;;15.40;60.50;;;;;;4064389;29;20120;-60
2022/02/28 05:53:08;;;;;;;11.30;7.72;;;15.40;60.40;;;;;;4064023;29;20056;-60
2022/02/28 05:55:30;;;;;;;9.95;6.88;;;15.40;60.20;;;;;;4050228;29;20055;-61
2022/02/28 05:57:53;;;;;;;8.40;7.32;;;15.40;60.10;;;;;;4061932;29;20468;-61
2022/02/28 06:00:16;;;;;;;11.27;6.88;;;15.40;60.10;;;;;;4048608;29;20049;-60
2022/02/28 06:02:38;;;;;;;11.00;8.02;;;15.40;60.20;;;;;;4048923;29;20049;-61
2022/02/28 06:05:01;;;;;;;9.57;6.97;;;15.40;60.10;;;;;;4049179;29;20390;-61
2022/02/28 06:07:23;;;;;;;8.20;7.10;;;15.40;60.00;;;;;;4049091;29;20372;-61
2022/02/28 06:09:45;;;;;;;8.55;7.30;;;15.30;59.90;;;;;;4048474;29;20068;-60
2022/02/28 06:12:10;;;;;;;11.30;8.10;;;15.30;59.90;;;;;;4049041;29;20136;-59
2022/02/28 06:14:34;;;;;;;10.15;7.47;;;15.30;60.00;;;;;;4034400;29;20061;-60
2022/02/28 06:16:56;;;;;;;9.93;7.25;;;15.20;60.10;;;;;;4048292;29;20414;-61
2022/02/28 06:19:18;;;;;;;11.63;8.40;;;15.30;60.60;;;;;;4034217;29;20487;-62
2022/02/28 06:21:40;;;;;;;8.77;7.10;;;15.30;59.80;;;;;;4034235;29;20606;-61
2022/02/28 06:24:02;;;;;;;9.18;7.55;;;15.30;59.90;;;;;;4048607;29;20144;-60
2022/02/28 06:26:24;;;;;;;8.45;7.10;;;15.30;60.60;;;;;;4048655;29;20140;-61
2022/02/28 06:28:46;;;;;;;9.68;8.00;;;15.20;59.90;;;;;;4056426;29;20054;-60
2022/02/28 06:31:10;;;;;;;9.88;8.27;;;15.30;60.40;;;;;;4063865;29;20090;-61
2022/02/28 06:33:33;;;;;;;10.02;7.22;;;15.40;60.40;;;;;;4034011;29;20108;-60
2022/02/28 06:35:55;;;;;;;11.35;8.05;;;15.40;60.10;;;;;;4047890;29;20072;-61
2022/02/28 06:38:18;;;;;;;10.35;7.82;;;15.50;59.70;;;;;;4054271;29;20060;-60
2022/02/28 06:40:41;;;;;;;10.55;7.70;;;15.50;59.60;;;;;;4036556;29;20052;-60
2022/02/28 06:43:03;;;;;;;9.93;7.22;;;15.50;59.50;;;;;;4062965;29;20135;-60
2022/02/28 06:45:25;;;;;;;9.27;7.90;;;15.60;59.50;;;;;;4063222;29;20044;-61
2022/02/28 06:47:48;;;;;;;11.23;7.50;;;15.60;59.60;;;;;;4061127;29;20522;-61
2022/02/28 06:50:11;;;;;;;12.57;8.32;;;15.60;59.30;;;;;;4047825;29;20058;-60
2022/02/28 06:52:35;;;;;;;9.05;8.05;;;15.70;59.40;;;;;;4057272;29;20505;-60
2022/02/28 06:54:57;;;;;;;14.43;8.38;;;15.70;59.60;;;;;;4062306;29;20431;-62
2022/02/28 06:57:19;;;;;;;10.35;7.55;;;15.80;60.10;;;;;;4044074;29;20609;-59
2022/02/28 06:59:41;;;;;;;9.45;7.68;;;15.90;59.90;;;;;;4056685;29;20055;-61
2022/02/28 07:02:04;;;;;;;9.52;7.88;;;16.00;59.20;;;;;;4053265;29;20056;-61
2022/02/28 07:04:52;;;;;;;8.88;7.97;;;16.10;59.00;;;;;;4062288;29;20064;-60
2022/02/28 07:07:16;;;;;;;12.18;8.13;;;16.10;58.60;;;;;;4062963;29;20513;-61
2022/02/28 07:09:38;;;;;;;13.88;8.93;;;16.10;58.50;;;;;;4061669;29;20048;-60
2022/02/28 07:12:01;;;;;;;9.80;7.93;;;16.10;58.10;;;;;;4047666;29;20083;-60
2022/02/28 07:14:23;;;;;;;11.38;8.20;;;16.10;58.10;;;;;;4047519;29;20144;-60
2022/02/28 07:16:49;;;;;;;14.90;8.27;;;16.00;58.10;;;;;;4047683;29;20618;-60
2022/02/28 07:19:11;;;;;;;9.65;8.43;;;16.00;58.10;;;;;;4052494;29;20132;-61
2022/02/28 07:21:35;;;;;;;12.25;8.27;;;15.90;58.20;;;;;;4049514;29;20048;-60
2022/02/28 07:23:57;;;;;;;11.65;7.40;;;15.90;58.30;;;;;;4063118;29;20495;-60
2022/02/28 07:26:20;;;;;;;9.90;8.18;;;15.90;58.30;;;;;;4062975;29;20510;-60
2022/02/28 07:28:42;;;;;;;12.25;8.57;;;15.90;58.40;;;;;;4061790;29;20127;-60
2022/02/28 07:31:24;;;;;;;12.48;8.57;;;15.90;58.40;;;;;;4061849;29;20048;-60
2022/02/28 07:33:46;;;;;;;12.48;8.23;;;15.80;59.10;;;;;;4063360;29;20482;-60
2022/02/28 07:36:11;;;;;;;10.70;8.40;;;15.70;58.40;;;;;;4063026;29;20056;-60
2022/02/28 07:38:36;;;;;;;9.25;8.30;;;15.70;58.50;;;;;;4058214;29;20052;-61
2022/02/28 07:40:58;;;;;;;8.95;7.80;;;15.70;58.40;;;;;;4047214;29;20534;-59
2022/02/28 07:43:21;;;;;;;8.40;7.55;;;15.60;58.40;;;;;;4047065;29;20390;-59
2022/02/28 07:45:43;;;;;;;10.55;8.18;;;15.60;58.50;;;;;;4046968;29;20444;-61
2022/02/28 07:48:05;;;;;;;10.68;8.65;;;15.70;58.50;;;;;;4032281;29;20140;-60
2022/02/28 07:50:28;;;;;;;13.85;9.70;;;15.70;58.40;;;;;;4062734;29;20549;-60
2022/02/28 07:52:50;;;;;;;14.30;9.05;;;15.60;58.40;;;;;;4062740;29;20067;-60
2022/02/28 07:55:13;;;;;;;10.02;8.07;;;15.60;58.40;;;;;;4062708;29;20732;-60
2022/02/28 07:57:36;;;;;;;10.77;8.45;;;15.60;58.40;;;;;;4062661;29;20395;-60
2022/02/28 07:59:59;;;;;;;11.00;8.75;;;15.60;58.60;;;;;;4062029;29;20056;-60
2022/02/28 08:02:21;;;;;;;13.93;9.15;;;15.50;58.60;;;;;;4062614;29;20040;-60
2022/02/28 08:04:43;;;;;;;12.20;8.60;;;15.50;58.70;;;;;;4061939;29;20565;-60
2022/02/28 08:07:06;;;;;;;11.73;8.73;;;15.50;58.90;;;;;;4062428;29;20073;-60
2022/02/28 08:09:29;;;;;;;12.50;8.55;;;15.40;59.00;;;;;;4035475;29;20060;-60
2022/02/28 08:11:53;;;;;;;12.55;8.73;;;15.30;59.20;;;;;;4051459;29;20079;-60
2022/02/28 08:14:15;;;;;;;11.88;8.60;;;15.40;59.40;;;;;;4052461;29;20092;-60
2022/02/28 08:16:37;;;;;;;11.85;8.90;;;15.40;59.50;;;;;;4062264;29;20052;-60
2022/02/28 08:19:00;;;;;;;10.13;8.20;;;15.40;59.60;;;;;;4062048;29;20482;-60
2022/02/28 08:21:22;;;;;;;12.27;8.27;;;15.40;59.70;;;;;;4050273;29;20048;-60
2022/02/28 08:23:45;;;;;;;10.82;8.50;;;15.40;59.60;;;;;;4062288;29;20055;-60
2022/02/28 08:26:07;;;;;;;11.07;8.30;;;15.40;60.40;;;;;;4062449;29;20048;-60
2022/02/28 08:28:31;;;;;;;11.68;8.30;;;15.40;59.50;;;;;;4059786;29;20059;-61
2022/02/28 08:30:53;;;;;;;12.88;8.90;;;15.40;59.40;;;;;;4062621;29;20059;-60
2022/02/28 08:33:16;;;;;;;11.73;8.80;;;15.50;59.50;;;;;;4062791;29;20516;-60
2022/02/28 08:35:39;;;;;;;11.10;8.45;;;15.60;59.30;;;;;;4062403;29;20080;-60
2022/02/28 08:38:02;;;;;;;12.40;8.07;;;15.70;59.00;;;;;;4062319;29;20071;-60
2022/02/28 08:40:26;;;;;;;10.48;8.73;;;15.80;58.60;;;;;;4070455;29;20052;-60
2022/02/28 08:42:50;;;;;;;11.45;8.35;;;15.90;58.30;;;;;;4062407;29;20052;-60
2022/02/28 08:45:14;;;;;;;9.63;7.90;;;16.00;57.90;;;;;;4072242;29;20055;-60
2022/02/28 08:47:37;;;;;;;12.45;8.43;;;16.10;57.80;;;;;;4061762;29;20102;-61
2022/02/28 08:50:01;;;;;;;12.23;8.07;;;16.10;57.60;;;;;;4046482;29;20048;-61
2022/02/28 08:52:24;;;;;;;12.75;8.68;;;16.10;57.70;;;;;;4046465;29;20101;-61
2022/02/28 08:54:46;;;;;;;9.77;7.78;;;16.10;57.60;;;;;;4062441;29;20060;-60
2022/02/28 08:57:09;;;;;;;12.52;8.52;;;16.00;58.40;;;;;;4052537;29;20109;-60
2022/02/28 08:59:33;;;;;;;9.90;8.35;;;16.00;57.80;;;;;;4059723;29;20134;-61
2022/02/28 09:01:58;;;;;;;11.90;7.88;;;16.00;58.00;;;;;;4065145;29;20051;-60
2022/02/28 09:04:21;;;;;;;10.73;8.57;;;15.90;58.10;;;;;;4050560;29;20057;-60
2022/02/28 09:06:44;;;;;;;9.25;7.60;;;16.00;58.20;;;;;;4050798;29;20048;-60
2022/02/28 09:09:07;;;;;;;11.40;7.82;;;16.00;58.20;;;;;;4063281;29;20055;-60
2022/02/28 09:11:29;;;;;;;11.05;8.00;;;16.00;58.20;;;;;;4065054;29;20076;-60
2022/02/28 09:13:51;;;;;;;9.77;7.78;;;16.00;58.20;;;;;;4050353;29;20375;-60
2022/02/28 09:16:14;;;;;;;8.75;7.40;;;16.10;58.10;;;;;;4064885;29;20350;-60
2022/02/28 09:18:37;;;;;;;10.98;7.40;;;16.10;58.00;;;;;;4063262;29;20054;-60
2022/02/28 09:21:00;;;;;;;9.55;8.10;;;16.10;57.80;;;;;;4064358;29;20072;-60
2022/02/28 09:23:22;;;;;;;8.90;7.28;;;16.20;57.90;;;;;;4064571;29;20051;-60
2022/02/28 09:25:44;;;;;;;10.32;7.60;;;16.30;57.80;;;;;;4064931;29;20531;-60
2022/02/28 09:28:06;;;;;;;9.27;7.93;;;16.40;57.70;;;;;;4059200;29;20048;-60
2022/02/28 09:30:29;;;;;;;11.23;8.13;;;16.50;57.60;;;;;;4050107;29;20052;-63
2022/02/28 09:32:52;;;;;;;10.27;7.20;;;16.60;57.30;;;;;;4064713;29;20107;-60
2022/02/28 09:35:15;;;;;;;10.48;6.95;;;16.60;57.10;;;;;;4062294;29;20056;-60
2022/02/28 09:37:38;;;;;;;9.75;8.05;;;16.70;57.10;;;;;;4061513;29;20055;-60
2022/02/28 09:40:00;;;;;;;8.40;7.43;;;16.70;57.00;;;;;;4062051;29;20459;-60
2022/02/28 09:42:33;;;;;;;9.88;8.13;;;16.70;57.00;;;;;;4061616;29;20063;-60
2022/02/28 09:45:20;;;;;;;12.13;7.68;;;16.70;57.00;;;;;;4035750;29;20413;-60
2022/02/28 09:48:02;;;;;;;10.48;7.80;;;16.70;57.10;;;;;;4061648;29;20059;-59
2022/02/28 09:50:44;;;;;;;11.20;7.22;;;16.70;57.10;;;;;;4060927;29;20513;-60
2022/02/28 09:53:34;;;;;;;;;;;16.60;57.10;;;;;;4062252;29;20139;-60
2022/02/28 09:56:04;;;;;;;9.27;7.85;;;16.60;57.20;;;;;;4046162;29;19923;-60
2022/02/28 09:58:42;;;;;;;11.55;8.07;;;16.60;57.40;;;;;;4060548;29;20048;-60
2022/02/28 10:01:05;;;;;;;8.98;7.57;;;16.70;57.40;;;;;;4047846;29;20097;-60
2022/02/28 10:03:35;;;;;;;10.07;7.43;;;16.70;57.10;;;;;;4046870;29;20052;-59
2022/02/28 10:06:01;;;;;;;8.85;7.95;;;16.90;56.80;;;;;;4047014;29;20176;-59
2022/02/28 10:08:23;;;;;;;9.98;7.68;;;16.90;56.40;;;;;;4061778;29;20111;-59
2022/02/28 10:10:47;;;;;;;11.00;7.57;;;17.00;56.20;;;;;;4061285;29;20060;-59
2022/02/28 10:13:09;;;;;;;8.50;7.03;;;17.10;56.00;;;;;;4061490;29;20075;-59
2022/02/28 10:15:31;;;;;;;8.43;7.30;;;17.20;55.70;;;;;;4061426;29;20139;-59
2022/02/28 10:17:55;;;;;;;8.20;7.20;;;17.30;55.20;;;;;;4061458;29;20060;-59
2022/02/28 10:20:21;;;;;;;10.63;7.63;;;17.30;54.70;;;;;;4060881;29;20048;-58
2022/02/28 10:22:52;;;;;;;6.97;6.30;;;17.30;55.00;;;;;;4061112;29;20060;-59
2022/02/28 10:25:35;;;;;;;12.55;7.85;;;17.30;55.10;;;;;;4060926;29;20439;-58
2022/02/28 10:28:16;;;;;;;10.65;7.53;;;17.20;55.00;;;;;;4060438;29;20470;-59
2022/02/28 10:31:03;;;;;;;11.02;8.05;;;17.20;55.00;;;;;;4059635;29;20504;-59
2022/02/28 10:33:52;;;;;;;10.90;7.07;;;17.10;55.30;;;;;;4061301;29;20087;-59
2022/02/28 10:36:32;;;;;;;7.20;6.50;;;17.00;55.80;;;;;;4059970;29;20067;-64
2022/02/28 10:39:07;;;;;;;8.63;7.05;;;17.00;55.90;;;;;;4060714;29;20566;-63
2022/02/28 10:41:36;;;;;;;8.85;6.80;;;17.00;55.90;;;;;;4046120;29;20398;-63
2022/02/28 10:44:00;;;;;;;11.23;7.32;;;17.00;56.00;;;;;;4061230;29;20911;-65
2022/02/28 10:46:29;;;;;;;9.07;7.10;;;16.90;56.00;;;;;;4059969;29;20059;-64
2022/02/28 10:48:56;;;;;;;10.32;7.68;;;16.90;56.00;;;;;;4061031;29;20079;-62
2022/02/28 10:51:18;;;;;;;8.90;7.53;;;16.90;56.10;;;;;;4061117;29;20974;-62
2022/02/28 10:53:40;;;;;;;7.88;6.68;;;16.80;56.30;;;;;;4061152;29;20196;-62
2022/02/28 10:56:04;;;;;;;9.65;7.07;;;16.80;56.30;;;;;;4060347;29;20067;-62
2022/02/28 10:58:27;;;;;;;8.93;7.40;;;16.80;56.80;;;;;;4061149;29;20147;-62
2022/02/28 11:00:58;;;;;;;8.77;7.35;;;16.70;56.80;;;;;;4060557;29;20051;-62
2022/02/28 11:03:22;;;;;;;8.43;7.00;;;16.70;57.00;;;;;;4059263;29;20056;-62
2022/02/28 11:05:54;;;;;;;7.80;6.80;;;16.80;56.90;;;;;;4060628;29;20067;-63
2022/02/28 11:08:19;;;;;;;8.93;6.95;;;16.80;56.60;;;;;;4060426;29;20561;-60
2022/02/28 11:10:44;;;;;;;8.52;7.22;;;16.90;56.70;;;;;;4059626;29;20561;-62
2022/02/28 11:13:07;;;;;;;10.73;7.75;;;16.90;56.60;;;;;;4060244;29;20076;-60
2022/02/28 11:15:30;;;;;;;8.02;6.45;;;17.00;56.80;;;;;;4060785;29;20454;-62
2022/02/28 11:17:53;;;;;;;9.52;7.43;;;17.00;57.60;;;;;;4060416;29;20056;-61
2022/02/28 11:20:17;;;;;;;8.27;7.28;;;17.00;56.80;;;;;;4060475;29;20160;-61
2022/02/28 11:22:41;;;;;;;13.15;8.32;;;17.00;56.30;;;;;;4060499;29;20599;-60
2022/02/28 11:25:09;;;;;;;11.45;8.23;;;17.00;56.60;;;;;;4060479;29;20386;-60
2022/02/28 11:27:31;;;;;;;9.13;8.20;;;16.90;56.80;;;;;;4060700;29;20075;-61
2022/02/28 11:29:58;;;;;;;8.15;7.22;;;16.90;56.30;;;;;;4060179;29;20086;-60
2022/02/28 11:32:23;;;;;;;9.32;7.28;;;16.90;56.50;;;;;;4060519;29;20704;-61
2022/02/28 11:34:50;;;;;;;8.77;7.20;;;16.80;56.70;;;;;;4060389;29;20056;-60
2022/02/28 11:37:12;;;;;;;7.88;6.72;;;16.80;56.90;;;;;;4059881;29;20056;-60
2022/02/28 11:39:37;;;;;;;9.00;7.18;;;16.70;57.10;;;;;;4060493;29;20063;-60
2022/02/28 11:42:00;;;;;;;8.68;7.15;;;16.70;56.90;;;;;;4059496;29;20052;-60
2022/02/28 11:44:22;;;;;;;10.48;7.22;;;16.60;56.80;;;;;;4046073;29;20048;-61
2022/02/28 11:46:47;;;;;;;8.15;6.95;;;16.60;56.20;;;;;;4060397;29;20047;-61
2022/02/28 11:49:41;;;;;;;9.25;7.20;;;16.50;55.90;;;;;;4060601;29;20052;-61
2022/02/28 11:52:29;;;;;;;9.63;7.60;;;16.40;55.30;;;;;;4045241;29;20058;-61
2022/02/28 11:54:59;;;;;;;8.77;7.10;;;16.30;55.30;;;;;;4045236;29;20116;-61
2022/02/28 11:57:51;;;;;;;9.60;8.20;;;16.30;55.50;;;;;;4060427;29;20048;-62
2022/02/28 12:00:13;;;;;;;12.18;8.07;;;16.20;54.90;;;;;;4059956;29;20060;-61
2022/02/28 12:02:39;;;;;;;8.10;7.30;;;16.10;56.00;;;;;;4059805;29;20102;-62
2022/02/28 12:05:02;;;;;;;10.63;7.68;;;16.10;56.00;;;;;;4059816;29;20059;-61
2022/02/28 12:07:30;;;;;;;8.85;7.53;;;16.00;55.20;;;;;;4060477;29;20521;-61
2022/02/28 12:10:05;;;;;;;9.23;6.72;;;16.00;56.10;;;;;;4059647;29;20056;-62
2022/02/28 12:12:29;;;;;;;8.60;6.85;;;15.90;56.30;;;;;;4059447;29;20052;-61
2022/02/28 12:15:10;;;;;;;7.60;6.80;;;15.90;56.90;;;;;;4058644;29;20048;-63
2022/02/28 12:17:56;;;;;;;9.93;7.90;;;15.90;55.90;;;;;;4059701;29;20059;-62
2022/02/28 12:20:22;;;;;;;8.60;7.20;;;15.90;55.50;;;;;;4060186;29;20052;-62
2022/02/28 12:23:11;;;;;;;8.30;6.68;;;15.80;55.90;;;;;;4059764;29;20811;-61
2022/02/28 12:25:35;;;;;;;11.27;6.85;;;15.90;55.40;;;;;;4059292;29;20088;-62
2022/02/28 12:27:57;;;;;;;9.25;7.38;;;15.90;55.40;;;;;;4061331;29;20139;-62
2022/02/28 12:30:43;;;;;;;10.80;7.65;;;15.90;55.60;;;;;;4060190;29;20052;-62
2022/02/28 12:33:07;;;;;;;8.60;6.90;;;15.80;55.90;;;;;;4060007;29;20047;-61